This is the latest recevied weather packets stored in our database for station/object K6MBY. If no packets are shown the sender has not sent any weather packets the latest 10 day(s).
| Time | Temp. | Humidity | Pressure | Rain* | Wind** | Luminosity | Snow |
|---|---|---|---|---|---|---|---|
| 1777897667 | 13.89° C | 63% | 1013.1 hPa | 0 mm | - | 0 W/m² | - |
| 1777897364 | 13.33° C | 66% | 1013.2 hPa | 0 mm | - | 0 W/m² | - |
| 1777897060 | 13.33° C | 68% | 1013.2 hPa | 0 mm | - | 0 W/m² | - |
| 1777896757 | 12.78° C | 71% | 1013.2 hPa | 0 mm | - | 0 W/m² | - |
| 1777896454 | 13.33° C | 69% | 1013.1 hPa | 0 mm | - | 0 W/m² | - |
| 1777896151 | 13.89° C | 68% | 1013 hPa | 0 mm | - | 0 W/m² | - |
| 1777895849 | 15° C | 63% | 1013.1 hPa | 0 mm | - | 0 W/m² | - |
| 1777895546 | 14.44° C | 63% | 1013.1 hPa | 0 mm | - | 0 W/m² | - |
| 1777895244 | 15° C | 62% | 1013.3 hPa | 0 mm | - | 0 W/m² | - |
| 1777894941 | 15° C | 62% | 1013.1 hPa | 0 mm | - | 0 W/m² | - |
| 1777894639 | 13.89° C | 64% | 1013.1 hPa | 0 mm | - | 0 W/m² | - |
| 1777894335 | 13.89° C | 65% | 1013.2 hPa | 0 mm | - | 0 W/m² | - |
| 1777894033 | 13.89° C | 68% | 1013.1 hPa | 0 mm | - | 0 W/m² | - |
| 1777893729 | 13.89° C | 69% | 1013 hPa | 0 mm | - | 0 W/m² | - |
| 1777893425 | 13.89° C | 69% | 1012.9 hPa | 0 mm | - | 0 W/m² | - |
| 1777893122 | 13.89° C | 69% | 1012.8 hPa | 0 mm | - | 0 W/m² | - |
| 1777892819 | 13.89° C | 69% | 1012.9 hPa | 0 mm | - | 0 W/m² | - |
| 1777892515 | 13.33° C | 69% | 1013 hPa | 0 mm | - | 0 W/m² | - |
| 1777892210 | 13.33° C | 68% | 1013 hPa | 0 mm | - | 0 W/m² | - |
| 1777891908 | 13.33° C | 67% | 1013.1 hPa | 0 mm | - | 0 W/m² | - |
| 1777891605 | 13.33° C | 67% | 1013.1 hPa | 0 mm | - | 0 W/m² | - |
| 1777891302 | 13.89° C | 67% | 1013.1 hPa | 0 mm | - | 0 W/m² | - |
| 1777891001 | 13.33° C | 66% | 1013.1 hPa | 0 mm | - | 0 W/m² | - |
| 1777890696 | 13.89° C | 64% | 1012.9 hPa | 0 mm | - | 0 W/m² | - |
| 1777890392 | 13.89° C | 64% | 1012.9 hPa | 0 mm | - | 0 W/m² | - |
* Rain latest hour (hover to see other rain measurements)
** Current wind speed in m/s (hover to see current wind gust speed)